Time;durP1;ratioP1;P1;durP2;ratioP2;P2;SDS_P1;SDS_P2;PMS_P1;PMS_P2;Temp;Humidity;BMP_temperature;BMP_pressure;BME280_temperature;BME280_humidity;BME280_pressure;Samples;Min_cycle;Max_cycle;Signal;HPM_P1;HPM_P2
2020/12/31 05:50:22;;;;;;;10.25;5.63;;;;;;;;;;6252786;23;20020;-77
2020/12/31 05:52:48;;;;;;;11.23;6.03;;;;;;;;;;6224638;23;20008;-79
2020/12/31 05:55:15;;;;;;;11.90;6.50;;;;;;;;;;6250724;22;20026;-78
2020/12/31 05:57:44;;;;;;;10.75;6.50;;;;;;;;;;6250942;23;20007;-77
2020/12/31 06:00:12;;;;;;;10.55;6.63;;;;;;;;;;6251197;23;20004;-78
2020/12/31 06:02:42;;;;;;;11.40;6.38;;;;;;;;;;6251432;23;20383;-78
2020/12/31 06:05:10;;;;;;;12.20;6.95;;;;;;;;;;6250539;23;20066;-79
2020/12/31 06:07:40;;;;;;;10.52;6.75;;;;;;;;;;6250849;23;20004;-78
2020/12/31 06:10:07;;;;;;;13.57;6.70;;;;;;;;;;6250806;23;19996;-78
2020/12/31 06:12:49;;;;;;;13.02;7.28;;;;;;;;;;6255113;23;20011;-79
2020/12/31 06:15:19;;;;;;;9.70;5.97;;;;;;;;;;6252498;22;20000;-79
2020/12/31 06:17:46;;;;;;;12.27;7.05;;;;;;;;;;6253198;23;20338;-79
2020/12/31 06:20:14;;;;;;;12.13;6.10;;;;;;;;;;6255283;23;20008;-78
2020/12/31 06:25:05;;;;;;;12.45;6.22;;;;;;;;;;5088887;28;20872;-77
2020/12/31 06:27:38;;;;;;;14.70;7.78;;;;;;;;;;5064201;28;20020;-78
2020/12/31 06:30:04;;;;;;;15.30;6.95;;;;;;;;;;5069128;28;20469;-77
2020/12/31 06:32:36;;;;;;;12.40;7.38;;;;;;;;;;5064971;28;20036;-79
2020/12/31 06:35:09;;;;;;;9.65;5.90;;;;;;;;;;5044517;28;20033;-79
2020/12/31 06:37:36;;;;;;;11.20;7.50;;;;;;;;;;5063659;28;20038;-79
2020/12/31 06:40:20;;;;;;;13.20;6.93;;;;;;;;;;5065271;28;20091;-78
2020/12/31 06:43:05;;;;;;;12.68;6.40;;;;;;;;;;5068764;28;20032;-78
2020/12/31 06:45:33;;;;;;;10.50;6.63;;;;;;;;;;5066886;28;20024;-79
2020/12/31 06:48:27;;;;;;;9.93;5.78;;;;;;;;;;5080637;28;20021;-78
2020/12/31 06:51:12;;;;;;;11.02;6.75;;;;;;;;;;5059059;28;20396;-78
2020/12/31 06:53:44;;;;;;;9.40;6.55;;;;;;;;;;5071783;28;20420;-78
2020/12/31 06:56:11;;;;;;;11.15;6.28;;;;;;;;;;5072327;28;20049;-78
2020/12/31 06:58:37;;;;;;;9.88;5.95;;;;;;;;;;5086234;28;20076;-79
2020/12/31 07:01:22;;;;;;;10.30;5.90;;;;;;;;;;5063886;28;20552;-77
2020/12/31 07:03:48;;;;;;;10.18;5.82;;;;;;;;;;5065206;28;20142;-78
2020/12/31 07:06:25;;;;;;;10.93;6.35;;;;;;;;;;5069286;28;20050;-78
2020/12/31 07:08:52;;;;;;;12.73;7.43;;;;;;;;;;5067150;28;20025;-79
2020/12/31 07:11:34;;;;;;;11.88;6.93;;;;;;;;;;5062606;28;20036;-78
2020/12/31 07:14:01;;;;;;;12.52;6.35;;;;;;;;;;5061659;28;20029;-79
2020/12/31 07:16:46;;;;;;;11.68;6.72;;;;;;;;;;5074945;28;20069;-79
2020/12/31 07:19:12;;;;;;;9.43;5.57;;;;;;;;;;5065505;28;20037;-78
2020/12/31 07:21:38;;;;;;;9.77;5.88;;;;;;;;;;5053636;28;20053;-76
2020/12/31 07:24:23;;;;;;;10.60;6.53;;;;;;;;;;5053354;28;20037;-76
2020/12/31 07:26:50;;;;;;;9.82;5.68;;;;;;;;;;5064978;28;20029;-78
2020/12/31 07:29:34;;;;;;;10.02;5.47;;;;;;;;;;5066320;28;20029;-78
2020/12/31 07:32:01;;;;;;;9.27;5.70;;;;;;;;;;5070896;28;20032;-77
2020/12/31 07:34:28;;;;;;;12.57;6.97;;;;;;;;;;5064152;28;20037;-79
2020/12/31 07:36:58;;;;;;;16.63;6.95;;;;;;;;;;5063892;28;20033;-77
2020/12/31 07:39:26;;;;;;;12.32;6.80;;;;;;;;;;5045539;28;20033;-77
2020/12/31 07:42:07;;;;;;;28.70;15.38;;;;;;;;;;5052156;28;20033;-78
2020/12/31 07:44:34;;;;;;;34.33;19.38;;;;;;;;;;5025734;28;20504;-78
2020/12/31 07:47:01;;;;;;;21.90;13.82;;;;;;;;;;5042750;28;20030;-79
2020/12/31 07:49:27;;;;;;;14.80;8.65;;;;;;;;;;5064619;28;20036;-78
2020/12/31 07:51:53;;;;;;;11.63;6.40;;;;;;;;;;5061934;28;20037;-78
2020/12/31 07:54:20;;;;;;;13.85;7.88;;;;;;;;;;5063352;28;20417;-77
2020/12/31 07:56:48;;;;;;;13.27;8.00;;;;;;;;;;5051235;28;20025;-78
2020/12/31 07:59:14;;;;;;;13.05;7.35;;;;;;;;;;5048826;28;20033;-78
2020/12/31 08:01:40;;;;;;;9.80;5.30;;;;;;;;;;5046965;28;20021;-78
2020/12/31 08:04:10;;;;;;;11.88;7.45;;;;;;;;;;5047617;28;20044;-76
2020/12/31 08:06:36;;;;;;;15.07;7.60;;;;;;;;;;5045962;28;20105;-79
2020/12/31 08:09:02;;;;;;;8.05;4.88;;;;;;;;;;5051976;28;20049;-77
2020/12/31 08:11:28;;;;;;;7.60;4.25;;;;;;;;;;5052103;28;20025;-78
2020/12/31 08:14:03;;;;;;;6.93;4.28;;;;;;;;;;5046856;28;20029;-78
2020/12/31 08:16:29;;;;;;;9.75;5.28;;;;;;;;;;5050632;28;20522;-78
2020/12/31 08:18:58;;;;;;;10.23;5.40;;;;;;;;;;5051028;28;20028;-77
2020/12/31 08:21:24;;;;;;;9.13;5.03;;;;;;;;;;5038819;28;20029;-77
2020/12/31 08:23:57;;;;;;;10.48;5.90;;;;;;;;;;5045818;28;20148;-79
2020/12/31 08:26:23;;;;;;;6.95;4.05;;;;;;;;;;5045092;28;20052;-78
2020/12/31 08:28:50;;;;;;;5.50;3.42;;;;;;;;;;5044261;28;20029;-78
2020/12/31 08:31:16;;;;;;;6.82;4.47;;;;;;;;;;5056957;28;20025;-78
2020/12/31 08:33:45;;;;;;;6.97;4.38;;;;;;;;;;5051810;28;20025;-79
2020/12/31 08:36:12;;;;;;;8.05;4.10;;;;;;;;;;5044939;28;20060;-78
2020/12/31 08:38:39;;;;;;;5.28;3.13;;;;;;;;;;5048140;28;20400;-78
2020/12/31 08:41:06;;;;;;;6.90;4.47;;;;;;;;;;5050195;28;20465;-78
2020/12/31 08:43:33;;;;;;;9.73;5.25;;;;;;;;;;5060163;28;20028;-77
2020/12/31 08:46:00;;;;;;;14.00;8.63;;;;;;;;;;5057400;28;20028;-78
2020/12/31 08:48:26;;;;;;;8.95;4.65;;;;;;;;;;5062382;28;20027;-78
2020/12/31 08:51:04;;;;;;;7.70;3.80;;;;;;;;;;5045631;28;20061;-78
2020/12/31 08:53:30;;;;;;;8.52;4.00;;;;;;;;;;5054823;28;20393;-78
2020/12/31 08:55:56;;;;;;;9.43;4.75;;;;;;;;;;5053486;28;20039;-78
2020/12/31 08:58:26;;;;;;;7.07;4.00;;;;;;;;;;5041212;28;20033;-79
2020/12/31 09:00:52;;;;;;;7.30;4.40;;;;;;;;;;5051887;28;20029;-78
2020/12/31 09:03:19;;;;;;;7.28;4.18;;;;;;;;;;5047256;28;20055;-77
2020/12/31 09:06:04;;;;;;;6.70;4.07;;;;;;;;;;5044375;28;20056;-76
2020/12/31 09:08:30;;;;;;;6.45;3.97;;;;;;;;;;5058345;28;20044;-78
2020/12/31 09:11:04;;;;;;;7.18;4.32;;;;;;;;;;5032892;28;20061;-78
2020/12/31 09:13:34;;;;;;;7.53;3.97;;;;;;;;;;5058947;28;20485;-78
2020/12/31 09:16:11;;;;;;;7.10;4.00;;;;;;;;;;5043558;28;20031;-78
2020/12/31 09:18:37;;;;;;;6.70;3.47;;;;;;;;;;5045242;28;20504;-78
2020/12/31 09:21:03;;;;;;;5.15;3.33;;;;;;;;;;5036177;28;20053;-78
2020/12/31 09:23:29;;;;;;;6.25;3.25;;;;;;;;;;5041387;28;20036;-78
2020/12/31 09:25:55;;;;;;;7.15;4.82;;;;;;;;;;5048784;28;20412;-79
2020/12/31 09:28:22;;;;;;;7.60;4.15;;;;;;;;;;5050849;28;20667;-78
2020/12/31 09:30:49;;;;;;;5.57;3.72;;;;;;;;;;5050711;28;20064;-78
2020/12/31 09:33:19;;;;;;;6.65;3.90;;;;;;;;;;5038159;28;20026;-77
2020/12/31 09:35:46;;;;;;;4.90;3.20;;;;;;;;;;5035443;28;20248;-79
2020/12/31 09:38:12;;;;;;;6.38;3.85;;;;;;;;;;5048467;28;20045;-77
2020/12/31 09:40:38;;;;;;;7.32;4.18;;;;;;;;;;5051806;28;20040;-78
2020/12/31 09:43:04;;;;;;;6.95;4.15;;;;;;;;;;5047560;28;20033;-77
2020/12/31 09:45:30;;;;;;;7.25;3.85;;;;;;;;;;5035976;28;20033;-78
2020/12/31 09:47:57;;;;;;;7.78;3.72;;;;;;;;;;5050278;28;20104;-78
2020/12/31 09:50:23;;;;;;;8.82;3.67;;;;;;;;;;5030054;28;20029;-78
2020/12/31 09:52:49;;;;;;;7.80;4.80;;;;;;;;;;5045650;28;20025;-78
2020/12/31 09:55:15;;;;;;;9.35;4.28;;;;;;;;;;5043705;28;20064;-76
2020/12/31 09:57:41;;;;;;;12.52;6.50;;;;;;;;;;5049807;28;20051;-77
2020/12/31 10:02:25;;;;;;;7.93;5.85;;;;;;;;;;5088943;28;20348;-78
2020/12/31 10:04:51;;;;;;;8.02;5.13;;;;;;;;;;5094385;28;20078;-78
2020/12/31 10:07:17;;;;;;;8.20;5.50;;;;;;;;;;5090447;28;20100;-79
2020/12/31 10:09:43;;;;;;;9.63;5.38;;;;;;;;;;5084804;28;20053;-79
2020/12/31 10:12:11;;;;;;;10.68;6.13;;;;;;;;;;5070493;28;20388;-79
2020/12/31 10:14:38;;;;;;;9.57;6.45;;;;;;;;;;5062967;28;20028;-77
2020/12/31 10:17:04;;;;;;;12.68;6.88;;;;;;;;;;5085628;28;20085;-78
2020/12/31 10:19:30;;;;;;;6.75;4.25;;;;;;;;;;5080777;28;20044;-78
2020/12/31 10:21:56;;;;;;;11.57;7.25;;;;;;;;;;5077758;28;20039;-78
2020/12/31 10:24:21;;;;;;;7.65;4.40;;;;;;;;;;5081057;28;20025;-78
2020/12/31 10:26:48;;;;;;;6.97;4.07;;;;;;;;;;5085166;28;20045;-78
2020/12/31 10:29:14;;;;;;;5.90;3.70;;;;;;;;;;5080863;28;20025;-78
2020/12/31 10:31:42;;;;;;;9.60;4.82;;;;;;;;;;5082060;28;20107;-78
2020/12/31 10:34:08;;;;;;;8.80;4.90;;;;;;;;;;5056986;28;20055;-79
2020/12/31 10:36:34;;;;;;;8.07;4.97;;;;;;;;;;5082132;28;20025;-79
2020/12/31 10:39:02;;;;;;;6.70;4.32;;;;;;;;;;5095728;28;20028;-79
2020/12/31 10:41:28;;;;;;;7.80;4.05;;;;;;;;;;5099377;28;20063;-79
2020/12/31 10:43:54;;;;;;;7.75;5.10;;;;;;;;;;5080318;28;20032;-79
2020/12/31 10:46:21;;;;;;;7.53;4.15;;;;;;;;;;5086533;28;20024;-79
2020/12/31 10:48:47;;;;;;;7.45;4.63;;;;;;;;;;5096170;28;20016;-79
2020/12/31 10:51:13;;;;;;;7.45;4.18;;;;;;;;;;5064112;28;20029;-78
2020/12/31 10:53:39;;;;;;;7.18;4.45;;;;;;;;;;5085499;28;20032;-79
2020/12/31 10:56:05;;;;;;;6.55;4.38;;;;;;;;;;5081725;28;20482;-79
2020/12/31 10:58:31;;;;;;;6.38;3.80;;;;;;;;;;5090257;28;20079;-78
2020/12/31 11:00:57;;;;;;;6.18;3.92;;;;;;;;;;5059929;28;20038;-78
2020/12/31 11:03:23;;;;;;;8.27;4.57;;;;;;;;;;5082714;28;20868;-78
2020/12/31 11:05:49;;;;;;;6.65;4.00;;;;;;;;;;5074577;28;20111;-77
2020/12/31 11:08:15;;;;;;;7.30;4.40;;;;;;;;;;5077902;28;20101;-77
2020/12/31 11:10:41;;;;;;;6.63;4.18;;;;;;;;;;5080405;28;20497;-78
2020/12/31 11:13:07;;;;;;;7.15;4.68;;;;;;;;;;5069214;28;20113;-78
2020/12/31 11:17:50;;;;;;;9.52;5.93;;;;;;;;;;5076711;27;20404;-77
2020/12/31 11:20:16;;;;;;;8.10;5.13;;;;;;;;;;5079086;28;20473;-77
2020/12/31 11:22:42;;;;;;;8.13;5.20;;;;;;;;;;5074257;28;20471;-79
2020/12/31 11:25:08;;;;;;;6.55;4.30;;;;;;;;;;5079758;28;20055;-79
2020/12/31 11:29:53;;;;;;;5.88;3.08;;;;;;;;;;5110266;27;20378;-79
2020/12/31 11:32:19;;;;;;;5.63;3.08;;;;;;;;;;5089861;28;20028;-76
2020/12/31 11:34:45;;;;;;;5.10;3.17;;;;;;;;;;5090846;28;20029;-79
2020/12/31 11:37:11;;;;;;;4.68;2.97;;;;;;;;;;5090565;28;20031;-78
2020/12/31 11:39:37;;;;;;;5.57;3.45;;;;;;;;;;5091059;28;20028;-78
2020/12/31 11:42:03;;;;;;;4.82;2.97;;;;;;;;;;5091829;28;20028;-79
2020/12/31 11:44:29;;;;;;;6.20;2.95;;;;;;;;;;5089811;28;20032;-78
2020/12/31 11:47:01;;;;;;;5.40;3.30;;;;;;;;;;5092819;28;20028;-77
2020/12/31 11:49:27;;;;;;;7.03;3.97;;;;;;;;;;5093641;28;20021;-79
2020/12/31 11:51:56;;;;;;;9.60;4.90;;;;;;;;;;5095221;28;20031;-79
2020/12/31 11:54:22;;;;;;;9.02;5.15;;;;;;;;;;5092853;28;20020;-78
2020/12/31 11:56:48;;;;;;;9.60;4.60;;;;;;;;;;5094761;28;20031;-77
2020/12/31 11:59:14;;;;;;;4.85;3.13;;;;;;;;;;5093071;28;20051;-78
2020/12/31 12:01:40;;;;;;;5.53;3.47;;;;;;;;;;5094471;28;20057;-78
2020/12/31 12:04:06;;;;;;;10.32;5.70;;;;;;;;;;5084593;28;20035;-79
2020/12/31 12:06:32;;;;;;;6.40;4.15;;;;;;;;;;5091745;28;20066;-78
2020/12/31 12:08:58;;;;;;;6.40;4.10;;;;;;;;;;5091923;28;20064;-79
2020/12/31 12:11:30;;;;;;;7.50;3.55;;;;;;;;;;5091751;28;20530;-78
2020/12/31 12:13:57;;;;;;;5.20;3.03;;;;;;;;;;5088396;28;20028;-78
2020/12/31 12:16:22;;;;;;;7.68;3.53;;;;;;;;;;5082331;28;20520;-79
2020/12/31 12:18:49;;;;;;;4.60;3.13;;;;;;;;;;5090386;28;20103;-78
2020/12/31 12:21:18;;;;;;;4.68;2.80;;;;;;;;;;5090966;28;20105;-78
2020/12/31 12:23:44;;;;;;;5.95;2.85;;;;;;;;;;5091101;28;20340;-80
2020/12/31 12:26:11;;;;;;;4.68;2.97;;;;;;;;;;5090516;28;20107;-78
2020/12/31 12:28:37;;;;;;;7.95;3.22;;;;;;;;;;5088254;28;20029;-77
2020/12/31 12:31:03;;;;;;;9.45;3.42;;;;;;;;;;5092191;28;20032;-79
2020/12/31 12:33:29;;;;;;;5.75;3.60;;;;;;;;;;5092648;28;20035;-77
2020/12/31 12:35:55;;;;;;;13.23;8.88;;;;;;;;;;5091505;28;20028;-78
2020/12/31 12:38:21;;;;;;;15.80;10.13;;;;;;;;;;5089379;28;20043;-78
2020/12/31 12:40:47;;;;;;;27.92;11.95;;;;;;;;;;5082687;28;20405;-78
2020/12/31 12:43:13;;;;;;;18.15;8.60;;;;;;;;;;5076700;28;20362;-77
2020/12/31 12:45:39;;;;;;;18.13;7.88;;;;;;;;;;5073990;28;20115;-78
2020/12/31 12:48:05;;;;;;;13.20;8.40;;;;;;;;;;5077687;28;20039;-79
2020/12/31 12:50:31;;;;;;;9.70;6.03;;;;;;;;;;5076418;28;20085;-79
2020/12/31 12:52:57;;;;;;;11.57;7.15;;;;;;;;;;5075837;28;20020;-79
2020/12/31 12:55:23;;;;;;;9.90;5.60;;;;;;;;;;5073651;28;20024;-79
2020/12/31 12:57:49;;;;;;;13.18;7.63;;;;;;;;;;5074887;28;20107;-78
2020/12/31 13:00:15;;;;;;;15.13;9.30;;;;;;;;;;5073903;28;20031;-78
2020/12/31 13:02:41;;;;;;;12.75;7.82;;;;;;;;;;5071233;28;20044;-79
2020/12/31 13:05:07;;;;;;;12.98;6.07;;;;;;;;;;5074016;28;20032;-78
2020/12/31 13:07:33;;;;;;;9.98;6.22;;;;;;;;;;5072766;28;20040;-78
2020/12/31 13:09:59;;;;;;;8.95;5.28;;;;;;;;;;5073559;28;20032;-79
2020/12/31 13:12:25;;;;;;;8.00;4.53;;;;;;;;;;5073616;28;20025;-78
2020/12/31 13:14:51;;;;;;;6.13;3.58;;;;;;;;;;5073328;28;20471;-79
2020/12/31 13:17:17;;;;;;;5.07;3.10;;;;;;;;;;5076161;28;20020;-76
2020/12/31 13:19:44;;;;;;;8.57;4.75;;;;;;;;;;5076333;28;20411;-78
2020/12/31 13:22:10;;;;;;;7.30;4.93;;;;;;;;;;5077019;28;20028;-79
2020/12/31 13:24:36;;;;;;;9.38;4.88;;;;;;;;;;5076924;28;20039;-78
2020/12/31 13:27:02;;;;;;;8.02;3.75;;;;;;;;;;5075916;28;20429;-79
2020/12/31 13:29:28;;;;;;;10.95;6.15;;;;;;;;;;5076137;28;20039;-77
2020/12/31 13:31:55;;;;;;;8.60;5.15;;;;;;;;;;5078112;28;20065;-78
2020/12/31 13:34:21;;;;;;;9.98;5.40;;;;;;;;;;5078816;28;20025;-77
2020/12/31 13:36:49;;;;;;;6.45;3.75;;;;;;;;;;5080569;28;20530;-77
2020/12/31 13:39:15;;;;;;;7.45;4.20;;;;;;;;;;5079025;28;20039;-77
2020/12/31 13:41:41;;;;;;;6.85;3.58;;;;;;;;;;5077532;28;20032;-78
2020/12/31 13:44:07;;;;;;;7.90;4.75;;;;;;;;;;5077069;28;20084;-76
2020/12/31 13:46:33;;;;;;;8.13;4.10;;;;;;;;;;5073495;28;20028;-79
2020/12/31 13:48:59;;;;;;;6.88;3.95;;;;;;;;;;5076708;28;20093;-78
2020/12/31 13:51:25;;;;;;;5.63;3.58;;;;;;;;;;5077386;28;20097;-79
2020/12/31 13:53:51;;;;;;;8.65;4.50;;;;;;;;;;5075745;28;20466;-79
2020/12/31 13:56:20;;;;;;;6.05;3.97;;;;;;;;;;5076494;28;20476;-79
2020/12/31 13:58:46;;;;;;;5.53;3.38;;;;;;;;;;5073999;28;20052;-78
2020/12/31 14:01:12;;;;;;;7.20;3.55;;;;;;;;;;5072125;28;20032;-77
2020/12/31 14:03:38;;;;;;;14.63;7.50;;;;;;;;;;5073742;28;20043;-80
2020/12/31 14:06:04;;;;;;;34.83;17.60;;;;;;;;;;5076624;28;20028;-79
2020/12/31 14:08:32;;;;;;;11.38;6.55;;;;;;;;;;5076128;28;20488;-78
2020/12/31 14:10:58;;;;;;;15.10;9.10;;;;;;;;;;5075690;28;20028;-77
2020/12/31 14:13:24;;;;;;;9.07;6.10;;;;;;;;;;5073412;28;20565;-78
2020/12/31 14:15:50;;;;;;;6.95;4.30;;;;;;;;;;5073654;28;20138;-78
2020/12/31 14:18:16;;;;;;;6.65;4.05;;;;;;;;;;5070920;28;20067;-77
2020/12/31 14:20:42;;;;;;;5.63;3.17;;;;;;;;;;5075508;28;20032;-77
2020/12/31 14:23:08;;;;;;;7.07;3.40;;;;;;;;;;5076543;28;20416;-77
2020/12/31 14:25:34;;;;;;;6.40;4.13;;;;;;;;;;5075341;28;20480;-78
2020/12/31 14:28:00;;;;;;;6.60;3.83;;;;;;;;;;5070360;28;20032;-78
2020/12/31 14:30:26;;;;;;;7.15;5.07;;;;;;;;;;5075019;28;20028;-78
2020/12/31 14:32:52;;;;;;;6.25;3.78;;;;;;;;;;5075405;28;20086;-78
2020/12/31 14:35:18;;;;;;;7.40;4.25;;;;;;;;;;5073559;28;20053;-79
2020/12/31 14:37:45;;;;;;;6.25;4.03;;;;;;;;;;5075565;28;20032;-79
2020/12/31 14:40:12;;;;;;;7.38;4.47;;;;;;;;;;5075561;28;20452;-79
2020/12/31 14:42:38;;;;;;;6.95;4.53;;;;;;;;;;5075907;28;20051;-78
2020/12/31 14:45:04;;;;;;;7.15;4.35;;;;;;;;;;5073727;28;20024;-77
2020/12/31 14:47:30;;;;;;;6.95;4.32;;;;;;;;;;5073871;28;20040;-79
2020/12/31 14:49:56;;;;;;;7.35;4.70;;;;;;;;;;5075329;28;20416;-79
2020/12/31 14:52:22;;;;;;;7.38;4.22;;;;;;;;;;5075484;28;20137;-77
2020/12/31 14:54:48;;;;;;;5.63;3.35;;;;;;;;;;5072973;28;20037;-78
2020/12/31 14:57:14;;;;;;;5.05;3.08;;;;;;;;;;5075787;28;20028;-78
2020/12/31 14:59:40;;;;;;;7.00;3.85;;;;;;;;;;5072936;28;20032;-78
2020/12/31 15:02:06;;;;;;;6.85;4.53;;;;;;;;;;5075090;28;20077;-77
2020/12/31 15:04:32;;;;;;;5.88;3.40;;;;;;;;;;5073524;28;20423;-78
2020/12/31 15:06:58;;;;;;;6.82;3.42;;;;;;;;;;5071037;28;20094;-77
2020/12/31 15:09:24;;;;;;;5.85;3.42;;;;;;;;;;5075986;28;20036;-78
2020/12/31 15:11:51;;;;;;;5.60;2.90;;;;;;;;;;5075413;28;20024;-78
2020/12/31 15:14:17;;;;;;;12.48;7.45;;;;;;;;;;5073414;28;20029;-79
2020/12/31 15:16:43;;;;;;;11.68;6.32;;;;;;;;;;5075404;28;20507;-79
2020/12/31 15:19:09;;;;;;;10.50;5.60;;;;;;;;;;5071136;28;20055;-78
2020/12/31 15:21:39;;;;;;;52.15;23.67;;;;;;;;;;5081215;28;20024;-78
2020/12/31 15:24:36;;;;;;;8.38;5.80;;;;;;;;;;5074979;28;20020;-79
2020/12/31 15:27:21;;;;;;;6.82;4.15;;;;;;;;;;5081566;28;20033;-79
2020/12/31 15:29:47;;;;;;;6.93;4.03;;;;;;;;;;5079410;28;20041;-79
2020/12/31 15:34:32;;;;;;;7.13;3.95;;;;;;;;;;5080820;27;20780;-79
2020/12/31 15:37:02;;;;;;;7.53;4.10;;;;;;;;;;5070378;28;20028;-78
2020/12/31 15:39:28;;;;;;;5.82;3.30;;;;;;;;;;5064144;28;20036;-77
2020/12/31 15:41:54;;;;;;;6.88;3.63;;;;;;;;;;5063556;28;20082;-78
2020/12/31 15:44:20;;;;;;;6.53;4.15;;;;;;;;;;5063239;28;20071;-78
2020/12/31 15:46:53;;;;;;;6.07;3.58;;;;;;;;;;5042945;28;20024;-78
2020/12/31 15:49:19;;;;;;;6.00;3.45;;;;;;;;;;5059127;28;20039;-78
2020/12/31 15:51:45;;;;;;;6.15;3.20;;;;;;;;;;5050764;28;20783;-78
2020/12/31 15:54:11;;;;;;;7.00;3.47;;;;;;;;;;5067654;28;20021;-77
2020/12/31 15:56:38;;;;;;;5.82;3.47;;;;;;;;;;5068142;28;20111;-77
2020/12/31 16:01:22;;;;;;;6.88;4.10;;;;;;;;;;5085975;28;20382;-77
2020/12/31 16:06:12;;;;;;;9.93;4.18;;;;;;;;;;5105816;27;20368;-76
2020/12/31 16:08:38;;;;;;;4.47;3.08;;;;;;;;;;5089887;28;20028;-77
2020/12/31 16:11:04;;;;;;;4.30;2.58;;;;;;;;;;5088094;28;20094;-77
2020/12/31 16:13:30;;;;;;;6.10;3.38;;;;;;;;;;5090767;28;20024;-77
2020/12/31 16:15:56;;;;;;;5.43;2.95;;;;;;;;;;5091357;28;20032;-77
2020/12/31 16:18:22;;;;;;;5.82;2.70;;;;;;;;;;5090514;28;20028;-76
2020/12/31 16:20:48;;;;;;;6.93;3.13;;;;;;;;;;5089259;28;20035;-76
2020/12/31 16:23:15;;;;;;;4.78;2.78;;;;;;;;;;5088398;28;20086;-75
2020/12/31 16:25:41;;;;;;;5.72;3.03;;;;;;;;;;5082511;28;20135;-78
2020/12/31 16:28:07;;;;;;;5.25;2.70;;;;;;;;;;5088160;28;20848;-77
2020/12/31 16:30:33;;;;;;;4.85;2.80;;;;;;;;;;5087493;28;20016;-77
2020/12/31 16:32:59;;;;;;;5.43;3.22;;;;;;;;;;5087064;28;20644;-77
2020/12/31 16:35:25;;;;;;;7.40;4.20;;;;;;;;;;5088272;28;20025;-76
2020/12/31 16:37:51;;;;;;;5.10;3.45;;;;;;;;;;5087124;28;20035;-76
2020/12/31 16:40:17;;;;;;;5.35;3.17;;;;;;;;;;5084750;28;20724;-77
2020/12/31 16:42:43;;;;;;;4.70;2.63;;;;;;;;;;5086506;28;20549;-76
2020/12/31 16:45:10;;;;;;;6.65;3.70;;;;;;;;;;5083704;28;20032;-77
2020/12/31 16:47:37;;;;;;;7.53;4.45;;;;;;;;;;5086208;28;20028;-78
2020/12/31 16:50:07;;;;;;;8.23;4.10;;;;;;;;;;5086748;28;20500;-77
2020/12/31 16:52:33;;;;;;;10.75;6.13;;;;;;;;;;5093289;28;20047;-78
2020/12/31 16:55:00;;;;;;;7.95;3.45;;;;;;;;;;5092554;28;20037;-77
2020/12/31 16:57:26;;;;;;;5.65;3.15;;;;;;;;;;5092823;28;20028;-77
2020/12/31 16:59:53;;;;;;;5.97;3.00;;;;;;;;;;5092382;28;20500;-78
2020/12/31 17:02:18;;;;;;;4.57;2.72;;;;;;;;;;5093744;28;20040;-77
2020/12/31 17:04:44;;;;;;;6.20;3.42;;;;;;;;;;5095818;28;20112;-77
2020/12/31 17:07:10;;;;;;;8.18;4.20;;;;;;;;;;5087477;28;20032;-78
2020/12/31 17:09:40;;;;;;;7.78;4.30;;;;;;;;;;5086782;28;20012;-77
2020/12/31 17:12:06;;;;;;;7.25;4.47;;;;;;;;;;5087817;28;20338;-78
2020/12/31 17:14:32;;;;;;;9.70;5.50;;;;;;;;;;5087655;28;20058;-78
2020/12/31 17:16:58;;;;;;;6.65;4.03;;;;;;;;;;5075276;28;20032;-78
2020/12/31 17:19:24;;;;;;;8.68;4.53;;;;;;;;;;5075085;28;20409;-77
2020/12/31 17:21:50;;;;;;;8.27;4.30;;;;;;;;;;5074230;28;20070;-78
2020/12/31 17:24:17;;;;;;;10.52;6.68;;;;;;;;;;5073909;28;20024;-77
2020/12/31 17:26:43;;;;;;;9.15;5.20;;;;;;;;;;5075166;28;20087;-77
2020/12/31 17:29:13;;;;;;;8.63;5.50;;;;;;;;;;5073313;28;20020;-78
2020/12/31 17:31:39;;;;;;;10.88;5.70;;;;;;;;;;5069601;28;20390;-78
2020/12/31 17:34:06;;;;;;;8.68;5.82;;;;;;;;;;5074785;28;20047;-77
2020/12/31 17:36:32;;;;;;;12.57;8.90;;;;;;;;;;5074677;28;20028;-78
2020/12/31 17:38:58;;;;;;;15.50;8.85;;;;;;;;;;5074437;28;20123;-77
2020/12/31 17:41:24;;;;;;;10.30;6.68;;;;;;;;;;5071104;28;20060;-77
2020/12/31 17:43:51;;;;;;;8.63;5.72;;;;;;;;;;5074597;28;20021;-78
2020/12/31 17:46:18;;;;;;;9.48;5.38;;;;;;;;;;5072432;28;20032;-76
2020/12/31 17:48:45;;;;;;;8.23;5.32;;;;;;;;;;5075595;28;20378;-78
2020/12/31 17:51:15;;;;;;;10.02;5.47;;;;;;;;;;5072489;28;20082;-78
2020/12/31 17:53:41;;;;;;;11.38;6.40;;;;;;;;;;5072240;28;20449;-77
2020/12/31 17:56:09;;;;;;;10.20;7.05;;;;;;;;;;5072764;28;20078;-77
2020/12/31 17:58:35;;;;;;;8.25;5.93;;;;;;;;;;5073526;28;20024;-78
2020/12/31 18:01:01;;;;;;;11.05;6.60;;;;;;;;;;5077231;28;20028;-77
2020/12/31 18:03:27;;;;;;;8.77;6.05;;;;;;;;;;5087814;22;20044;-81
2020/12/31 18:05:55;;;;;;;8.90;6.13;;;;;;;;;;5087627;28;20377;-81
2020/12/31 18:08:21;;;;;;;12.75;6.22;;;;;;;;;;5074634;28;20055;-82
2020/12/31 18:10:47;;;;;;;8.23;5.82;;;;;;;;;;5071277;28;20021;-83
2020/12/31 18:13:13;;;;;;;7.95;5.43;;;;;;;;;;5073372;28;20028;-82
2020/12/31 18:15:39;;;;;;;8.23;5.25;;;;;;;;;;5067149;28;20031;-82
2020/12/31 18:18:05;;;;;;;6.78;4.43;;;;;;;;;;5065099;28;20143;-81
2020/12/31 18:20:32;;;;;;;7.80;4.78;;;;;;;;;;5070089;28;20551;-83
2020/12/31 18:22:58;;;;;;;7.50;4.72;;;;;;;;;;5068200;28;20487;-81
2020/12/31 18:25:24;;;;;;;7.88;5.38;;;;;;;;;;5068853;28;20031;-85
2020/12/31 18:27:50;;;;;;;9.30;7.13;;;;;;;;;;5064880;28;20028;-84
2020/12/31 18:30:17;;;;;;;6.90;4.38;;;;;;;;;;5071140;28;20017;-83
2020/12/31 18:32:44;;;;;;;7.03;4.43;;;;;;;;;;5072705;28;20050;-82
2020/12/31 18:35:10;;;;;;;7.15;4.20;;;;;;;;;;5064372;28;20050;-83
2020/12/31 18:39:55;;;;;;;7.82;4.68;;;;;;;;;;5085450;27;20401;-81
2020/12/31 18:42:21;;;;;;;8.52;5.32;;;;;;;;;;5082913;28;20063;-82
2020/12/31 18:44:47;;;;;;;10.48;6.10;;;;;;;;;;5067065;28;20029;-83
2020/12/31 18:47:13;;;;;;;9.25;6.13;;;;;;;;;;5070689;28;20023;-81
2020/12/31 18:49:40;;;;;;;9.57;5.85;;;;;;;;;;5064506;28;20067;-80
2020/12/31 18:52:16;;;;;;;10.68;6.03;;;;;;;;;;5069793;28;20516;-81
2020/12/31 18:54:45;;;;;;;7.95;5.13;;;;;;;;;;5065181;28;20058;-80
2020/12/31 18:57:12;;;;;;;7.88;4.97;;;;;;;;;;5063277;28;20097;-81
2020/12/31 18:59:38;;;;;;;7.28;4.68;;;;;;;;;;5072411;28;20025;-81
2020/12/31 19:02:05;;;;;;;7.93;4.93;;;;;;;;;;5074537;28;20032;-81
2020/12/31 19:04:32;;;;;;;9.68;5.88;;;;;;;;;;5075046;28;20087;-81
2020/12/31 19:06:58;;;;;;;11.27;6.10;;;;;;;;;;5071239;28;20497;-81
2020/12/31 19:09:24;;;;;;;8.60;5.60;;;;;;;;;;5070304;28;20037;-81
2020/12/31 19:11:50;;;;;;;22.08;14.63;;;;;;;;;;5072801;28;20083;-81
2020/12/31 19:14:16;;;;;;;14.15;10.10;;;;;;;;;;5067843;28;20029;-82
2020/12/31 19:16:42;;;;;;;15.07;10.25;;;;;;;;;;5068479;28;20028;-81
2020/12/31 19:19:08;;;;;;;17.25;10.70;;;;;;;;;;5070868;28;20062;-82
2020/12/31 19:21:38;;;;;;;11.95;7.68;;;;;;;;;;5067318;28;20036;-81
2020/12/31 19:24:05;;;;;;;9.13;5.70;;;;;;;;;;5064832;28;20477;-81
2020/12/31 19:26:31;;;;;;;9.40;6.18;;;;;;;;;;5069648;28;20084;-81
2020/12/31 19:28:57;;;;;;;8.20;5.32;;;;;;;;;;5066103;28;20055;-81
2020/12/31 19:31:22;;;;;;;7.45;4.78;;;;;;;;;;5062959;28;20025;-81
2020/12/31 19:33:48;;;;;;;8.07;5.00;;;;;;;;;;5071655;28;20024;-81
2020/12/31 19:36:15;;;;;;;7.53;5.10;;;;;;;;;;5067548;28;20057;-81
2020/12/31 19:38:41;;;;;;;8.63;4.65;;;;;;;;;;5063394;28;20598;-81
2020/12/31 19:41:08;;;;;;;9.38;5.72;;;;;;;;;;5068130;28;20051;-81
2020/12/31 19:43:34;;;;;;;8.52;5.32;;;;;;;;;;5064725;28;20029;-81
2020/12/31 19:46:00;;;;;;;8.63;5.60;;;;;;;;;;5066137;28;20048;-81
2020/12/31 19:48:26;;;;;;;9.73;5.20;;;;;;;;;;5067094;28;20026;-81
2020/12/31 19:50:52;;;;;;;11.32;5.18;;;;;;;;;;5064225;28;20025;-82
2020/12/31 19:53:19;;;;;;;8.80;5.43;;;;;;;;;;5061157;28;20040;-84
2020/12/31 19:55:45;;;;;;;12.75;8.40;;;;;;;;;;5055194;28;20043;-82
2020/12/31 19:58:11;;;;;;;15.25;8.82;;;;;;;;;;5051206;28;20053;-81
2020/12/31 20:00:37;;;;;;;12.02;7.93;;;;;;;;;;5044862;28;20032;-82
2020/12/31 20:03:03;;;;;;;11.18;6.80;;;;;;;;;;5058415;28;20021;-82
2020/12/31 20:05:29;;;;;;;9.25;6.00;;;;;;;;;;5058948;28;20025;-81
2020/12/31 20:07:55;;;;;;;10.32;6.28;;;;;;;;;;5056426;28;20388;-82
2020/12/31 20:10:21;;;;;;;10.68;5.80;;;;;;;;;;5059069;28;20041;-82
2020/12/31 20:12:48;;;;;;;8.15;5.03;;;;;;;;;;5052948;28;20072;-82
2020/12/31 20:15:14;;;;;;;7.82;4.70;;;;;;;;;;5056767;28;20127;-81
2020/12/31 20:17:40;;;;;;;8.65;4.97;;;;;;;;;;5056664;28;20065;-81
2020/12/31 20:20:06;;;;;;;7.65;4.15;;;;;;;;;;5057716;28;20032;-81
2020/12/31 20:22:32;;;;;;;20.02;4.85;;;;;;;;;;5054891;28;20017;-81
2020/12/31 20:24:58;;;;;;;6.43;3.80;;;;;;;;;;5055477;28;20075;-81
2020/12/31 20:27:25;;;;;;;6.50;3.67;;;;;;;;;;5055412;28;20567;-81
2020/12/31 20:29:51;;;;;;;7.53;4.70;;;;;;;;;;5057816;28;20085;-81
2020/12/31 20:32:17;;;;;;;7.53;3.97;;;;;;;;;;5044605;28;20073;-82
2020/12/31 20:34:43;;;;;;;7.05;4.47;;;;;;;;;;5054115;28;20029;-81
2020/12/31 20:37:09;;;;;;;8.00;4.53;;;;;;;;;;5057856;28;20024;-83
2020/12/31 20:39:35;;;;;;;8.38;5.70;;;;;;;;;;5054413;28;20029;-80
2020/12/31 20:42:02;;;;;;;8.05;4.93;;;;;;;;;;5055355;28;20024;-81
2020/12/31 20:44:28;;;;;;;7.60;5.15;;;;;;;;;;5054014;28;20018;-83
2020/12/31 20:46:54;;;;;;;8.63;5.72;;;;;;;;;;5056519;28;20059;-82